Tryon, North Carolina
Current Conditions -  °F | °C
As of 4:53 PM on Thursday 23 Oct 2014 (Local Time) from KGSP Reporting Station
Clear Clear  
Wind Chill: 71°   Ceiling: Unl
Heat Index: 71°   Visibility: 10mi
Dew Point: 37°   Wind: 5mph
Humidity: 29%   Direction: 40°NE
Pressure: 29.99"   Gusts: NA
Location:  35.21°N, 82.24°W
Report Text: KGSP 232053Z 04004KT 10SM CLR 22/03 A2999 RMK AO2 SLP149 T02170028 56014
Loading
Personal Weather Stations






























Interactive Weather Map
Tropical Storm Tracking
New forecast layout! Learn more

10-Day Weather Forecast

Advertisements
Track Severe Weather on mobile